createdAt,value
2022-08-26T00:02:11.789Z,102015.47
2022-08-26T00:04:41.508Z,101958.41
2022-08-26T00:07:11.447Z,101957.75
2022-08-26T00:09:40.361Z,102014.25
2022-08-26T00:12:12.311Z,102014.38
2022-08-26T00:14:41.244Z,102015.34
2022-08-26T00:17:09.268Z,102020.69
2022-08-26T00:19:37.311Z,101999.13
2022-08-26T00:22:07.638Z,101982.41
2022-08-26T00:24:35.678Z,102009.16
2022-08-26T00:27:03.817Z,102010.13
2022-08-26T00:29:37.440Z,101968.97
2022-08-26T00:32:06.381Z,102005.78
2022-08-26T00:34:34.897Z,102001.34
2022-08-26T00:37:03.184Z,102004.88
2022-08-26T00:39:33.017Z,102002.19
2022-08-26T00:42:01.042Z,102010.94
2022-08-26T00:44:30.421Z,102000.25
2022-08-26T00:47:03.866Z,102000.25
2022-08-26T00:49:38.311Z,101997.53
2022-08-26T00:52:09.990Z,101996.41
2022-08-26T00:54:46.896Z,101990.88
2022-08-26T00:57:18.385Z,101989.81
2022-08-26T00:59:48.290Z,101987.88
2022-08-26T01:02:21.338Z,101983.25
2022-08-26T01:04:55.596Z,101994.56
2022-08-26T01:07:25.521Z,101981.97
2022-08-26T01:09:56.285Z,101985.56
2022-08-26T01:12:26.470Z,101953.34
2022-08-26T01:14:55.089Z,101990.06
2022-08-26T01:17:23.269Z,101981.03
2022-08-26T01:19:53.964Z,101968.56
2022-08-26T01:22:28.673Z,101990.97
2022-08-26T01:24:59.725Z,101984.00
2022-08-26T01:27:32.717Z,101978.69
2022-08-26T01:30:02.850Z,101972.38
2022-08-26T01:32:34.386Z,101962.59
2022-08-26T01:35:02.925Z,101964.16
2022-08-26T01:37:36.949Z,101951.59
2022-08-26T01:40:14.926Z,101965.88
2022-08-26T01:42:46.923Z,101972.91
2022-08-26T01:45:19.968Z,101959.50
2022-08-26T01:47:49.858Z,101965.03
2022-08-26T01:50:30.257Z,101975.63
2022-08-26T01:53:01.802Z,101972.06
2022-08-26T01:55:34.046Z,101960.69
2022-08-26T01:58:07.457Z,101964.25
2022-08-26T02:00:36.507Z,101958.78
2022-08-26T02:03:18.767Z,101960.50
2022-08-26T02:05:51.322Z,101959.66
2022-08-26T02:08:24.505Z,101960.50
2022-08-26T02:10:54.839Z,101955.16
2022-08-26T02:13:24.412Z,101947.09
2022-08-26T02:15:52.855Z,101942.47
2022-08-26T02:18:21.028Z,101945.91
2022-08-26T02:20:53.961Z,101946.72
2022-08-26T02:23:21.906Z,101949.47
2022-08-26T02:25:59.278Z,101941.59
2022-08-26T02:28:32.025Z,101936.41
2022-08-26T02:31:00.695Z,101930.19
2022-08-26T02:33:31.116Z,101797.84
2022-08-26T02:35:59.173Z,101933.88
2022-08-26T02:38:27.971Z,101915.97
2022-08-26T02:40:57.337Z,101916.94
2022-08-26T02:43:31.652Z,101924.03
2022-08-26T02:46:02.528Z,101918.63
2022-08-26T02:48:31.476Z,101918.53
2022-08-26T02:51:01.967Z,101915.72
2022-08-26T02:53:31.815Z,101916.63
2022-08-26T02:56:02.031Z,101918.38
2022-08-26T02:58:31.598Z,101914.75
2022-08-26T03:00:59.664Z,101920.84
2022-08-26T03:03:30.241Z,101920.00
2022-08-26T03:05:58.874Z,101910.28
2022-08-26T03:08:26.740Z,101921.75
2022-08-26T03:10:55.496Z,101917.44
2022-08-26T03:13:25.440Z,101922.75
2022-08-26T03:15:53.358Z,101911.22
2022-08-26T03:18:21.305Z,101906.66
2022-08-26T03:20:49.528Z,101916.38
2022-08-26T03:23:17.542Z,101903.22
2022-08-26T03:25:50.490Z,101898.91
2022-08-26T03:28:18.469Z,101911.44
2022-08-26T03:30:49.289Z,101907.06
2022-08-26T03:33:19.337Z,101895.66
2022-08-26T03:35:50.525Z,101903.69
2022-08-26T03:38:19.362Z,101889.41
2022-08-26T03:40:47.781Z,101887.69
2022-08-26T03:43:17.278Z,101890.38
2022-08-26T03:45:46.062Z,101848.41
2022-08-26T03:48:16.317Z,101889.59
2022-08-26T03:50:44.258Z,101889.69
2022-08-26T03:53:12.950Z,101891.56
2022-08-26T03:55:42.213Z,101881.06
2022-08-26T03:58:11.378Z,101890.06
2022-08-26T04:00:39.579Z,101889.25
2022-08-26T04:03:09.730Z,101889.22
2022-08-26T04:05:39.473Z,101890.34
2022-08-26T04:08:08.404Z,101884.97
2022-08-26T04:10:39.081Z,101892.19
2022-08-26T04:13:07.364Z,101883.19
2022-08-26T04:15:35.803Z,101888.56
2022-08-26T04:18:04.271Z,101859.03
2022-08-26T04:20:32.723Z,101886.63
2022-08-26T04:23:02.386Z,101885.69
2022-08-26T04:25:30.394Z,101885.47
2022-08-26T04:27:58.287Z,101890.75
2022-08-26T04:30:26.494Z,101884.47
2022-08-26T04:32:54.420Z,101882.69
2022-08-26T04:35:25.756Z,101863.09
2022-08-26T04:37:54.440Z,101888.97
2022-08-26T04:40:24.223Z,101879.19
2022-08-26T04:42:53.791Z,101883.78
2022-08-26T04:45:22.895Z,101883.72
2022-08-26T04:47:54.730Z,101885.63
2022-08-26T04:50:23.790Z,101883.91
2022-08-26T04:52:52.971Z,101888.38
2022-08-26T04:55:20.874Z,101892.81
2022-08-26T04:57:55.189Z,101887.59
2022-08-26T05:00:23.405Z,101876.03
2022-08-26T05:02:54.373Z,101883.19
2022-08-26T05:05:22.610Z,101844.78
2022-08-26T05:07:50.545Z,101856.59
2022-08-26T05:10:18.965Z,101867.47
2022-08-26T05:12:47.534Z,101887.97
2022-08-26T05:15:17.314Z,101883.69
2022-08-26T05:17:45.382Z,101877.59
2022-08-26T05:20:13.405Z,101875.13
2022-08-26T05:22:41.461Z,101884.09
2022-08-26T05:25:10.559Z,101844.03
2022-08-26T05:27:38.641Z,101878.94
2022-08-26T05:30:08.378Z,101881.81
2022-08-26T05:32:38.195Z,101869.56
2022-08-26T05:35:08.891Z,101864.31
2022-08-26T05:37:38.548Z,101872.31
2022-08-26T05:40:07.945Z,101869.88
2022-08-26T05:42:36.452Z,101879.72
2022-08-26T05:45:05.108Z,101835.25
2022-08-26T05:47:32.985Z,101886.19
2022-08-26T05:50:05.687Z,101879.25
2022-08-26T05:52:34.714Z,101883.84
2022-08-26T05:55:02.772Z,101891.97
2022-08-26T05:57:30.946Z,101885.13
2022-08-26T05:59:59.184Z,101883.59
2022-08-26T06:02:27.369Z,101879.34
2022-08-26T06:04:55.544Z,101873.34
2022-08-26T06:07:45.140Z,101854.84
2022-08-26T06:10:32.618Z,101870.13
2022-08-26T06:13:06.166Z,101877.34
2022-08-26T06:15:43.138Z,101867.75
2022-08-26T06:18:14.049Z,101870.63
2022-08-26T06:20:57.407Z,101866.34
2022-08-26T06:23:47.093Z,101862.06
2022-08-26T06:26:16.467Z,101860.53
2022-08-26T06:28:45.793Z,101859.84
2022-08-26T06:31:18.916Z,101837.00
2022-08-26T06:33:47.229Z,101850.63
2022-08-26T06:36:20.678Z,101861.50
2022-08-26T06:38:51.416Z,101860.88
2022-08-26T06:41:22.826Z,101861.09
2022-08-26T06:43:51.205Z,101860.31
2022-08-26T06:46:21.636Z,101845.31
2022-08-26T06:48:50.360Z,101855.25
2022-08-26T06:51:22.350Z,101845.50
2022-08-26T06:53:54.639Z,101849.09
2022-08-26T06:56:25.707Z,101843.78
2022-08-26T06:58:54.262Z,101845.53
2022-08-26T07:01:26.581Z,101824.22
2022-08-26T07:03:57.369Z,101843.78
2022-08-26T07:06:26.535Z,101837.56
2022-08-26T07:09:03.607Z,101850.03
2022-08-26T07:11:33.556Z,101845.56
2022-08-26T07:14:01.553Z,101838.47
2022-08-26T07:16:30.263Z,101834.03
2022-08-26T07:18:59.420Z,101850.03
2022-08-26T07:21:29.898Z,101845.59
2022-08-26T07:24:01.381Z,101807.31
2022-08-26T07:26:31.609Z,101855.34
2022-08-26T07:29:01.298Z,101857.16
2022-08-26T07:31:37.373Z,101845.59
2022-08-26T07:34:09.432Z,101841.13
2022-08-26T07:36:37.667Z,101848.19
2022-08-26T07:39:07.916Z,101832.94
2022-08-26T07:41:36.705Z,101843.31
2022-08-26T07:44:04.960Z,101849.50
2022-08-26T07:46:33.588Z,101843.31
2022-08-26T07:49:02.003Z,101839.72
2022-08-26T07:51:31.527Z,101842.88
2022-08-26T07:53:59.533Z,101841.00
2022-08-26T07:56:29.531Z,101841.09
2022-08-26T07:58:57.410Z,101845.47
2022-08-26T08:01:27.016Z,101838.41
2022-08-26T08:03:56.333Z,101827.38
2022-08-26T08:06:28.310Z,101829.88
2022-08-26T08:08:57.264Z,101811.66
2022-08-26T08:11:27.283Z,101839.63
2022-08-26T08:13:57.142Z,101846.22
2022-08-26T08:16:26.349Z,101792.75
2022-08-26T08:18:54.649Z,101834.50
2022-08-26T08:21:24.413Z,101827.50
2022-08-26T08:23:53.409Z,101819.72
2022-08-26T08:26:22.086Z,101830.06
2022-08-26T08:28:50.240Z,101833.13
2022-08-26T08:31:52.037Z,101818.34
2022-08-26T08:34:13.012Z,101827.78
2022-08-26T08:36:41.010Z,101828.91
2022-08-26T08:39:09.690Z,101816.75
2022-08-26T08:41:46.514Z,101827.56
2022-08-26T08:44:20.070Z,101803.88
2022-08-26T08:46:53.413Z,101808.53
2022-08-26T08:49:22.005Z,101794.28
2022-08-26T08:51:56.575Z,101809.28
2022-08-26T08:54:26.419Z,101815.91
2022-08-26T08:57:02.919Z,101786.22
2022-08-26T08:59:34.639Z,101806.88
2022-08-26T09:02:12.365Z,101804.16
2022-08-26T09:05:06.656Z,101800.50
2022-08-26T09:07:40.231Z,101777.00
2022-08-26T09:10:27.668Z,101793.91
2022-08-26T09:12:55.951Z,101786.59
2022-08-26T09:15:30.168Z,101787.34
2022-08-26T09:18:11.119Z,101784.53
2022-08-26T09:20:50.609Z,101787.72
2022-08-26T09:23:19.285Z,101783.72
2022-08-26T09:25:50.165Z,101774.94
2022-08-26T09:28:20.369Z,101782.22
2022-08-26T09:31:01.326Z,101777.69
2022-08-26T09:33:33.394Z,101776.19
2022-08-26T09:36:22.668Z,101777.34
2022-08-26T09:38:51.668Z,101758.56
2022-08-26T09:41:26.904Z,101767.72
2022-08-26T09:44:16.002Z,101751.94
2022-08-26T09:46:48.373Z,101766.09
2022-08-26T09:49:30.673Z,101762.59
2022-08-26T09:52:20.878Z,101760.63
2022-08-26T09:55:03.639Z,101750.75
2022-08-26T09:57:34.079Z,101757.47
2022-08-26T10:00:02.762Z,101755.47
2022-08-26T10:02:39.492Z,101757.69
2022-08-26T10:05:17.078Z,101750.72
2022-08-26T10:07:47.730Z,101712.63
2022-08-26T10:10:22.007Z,101751.88
2022-08-26T10:12:57.854Z,101754.97
2022-08-26T10:15:29.038Z,101742.78
2022-08-26T10:18:05.671Z,101744.69
2022-08-26T10:20:39.386Z,101738.97
2022-08-26T10:23:14.660Z,101738.31
2022-08-26T10:25:48.412Z,101744.22
2022-08-26T10:28:28.213Z,101736.88
2022-08-26T10:31:02.406Z,101741.13
2022-08-26T10:33:30.490Z,101715.41
2022-08-26T10:36:02.975Z,101715.59
2022-08-26T10:38:35.760Z,101738.03
2022-08-26T10:41:10.647Z,101711.00
2022-08-26T10:43:45.932Z,101727.47
2022-08-26T10:46:22.479Z,101724.63
2022-08-26T10:48:59.933Z,101670.41
2022-08-26T10:51:35.678Z,101708.59
2022-08-26T10:54:11.880Z,101720.13
2022-08-26T10:56:47.291Z,101714.03
2022-08-26T10:59:25.240Z,101715.16
2022-08-26T11:02:04.582Z,101706.06
2022-08-26T11:04:48.370Z,101707.66
2022-08-26T11:07:46.132Z,101704.38
2022-08-26T11:11:04.829Z,101697.59
2022-08-26T11:14:01.689Z,101695.28
2022-08-26T11:16:35.086Z,101687.78
2022-08-26T11:19:03.395Z,101662.69
2022-08-26T11:21:52.218Z,101690.75
2022-08-26T11:25:11.821Z,101690.88
2022-08-26T11:28:05.905Z,101671.34
2022-08-26T11:30:56.995Z,101685.81
2022-08-26T11:34:00.446Z,101671.91
2022-08-26T11:37:01.605Z,101666.00
2022-08-26T11:39:38.469Z,101665.88
2022-08-26T11:42:22.132Z,101671.06
2022-08-26T11:44:52.758Z,101660.44
2022-08-26T11:47:29.898Z,101655.16
2022-08-26T11:50:12.615Z,101640.66
2022-08-26T11:52:40.673Z,101648.03
2022-08-26T11:55:11.610Z,101651.84
2022-08-26T11:57:45.938Z,101650.91
2022-08-26T12:00:33.611Z,101643.72
2022-08-26T12:03:08.769Z,101646.44
2022-08-26T12:05:44.266Z,101647.59
2022-08-26T12:08:16.440Z,101640.28
2022-08-26T12:10:44.415Z,101634.97
2022-08-26T12:13:22.954Z,101620.00
2022-08-26T12:15:57.378Z,101639.59
2022-08-26T12:18:28.925Z,101630.03
2022-08-26T12:21:00.564Z,101619.25
2022-08-26T12:23:41.429Z,101614.13
2022-08-26T12:26:14.666Z,101602.72
2022-08-26T12:28:47.232Z,101615.72
2022-08-26T12:31:26.845Z,101618.31
2022-08-26T12:33:56.357Z,101617.09
2022-08-26T12:36:31.547Z,101626.91
2022-08-26T12:39:08.846Z,101619.66
2022-08-26T12:41:50.342Z,101611.56
2022-08-26T12:44:59.274Z,101613.19
2022-08-26T12:47:42.613Z,101606.63
2022-08-26T12:50:18.314Z,101590.00
2022-08-26T12:52:57.347Z,101602.38
2022-08-26T12:55:29.127Z,101605.97
2022-08-26T12:58:21.411Z,101602.50
2022-08-26T13:00:50.717Z,101598.03
2022-08-26T13:03:43.285Z,101596.81
2022-08-26T13:06:16.046Z,101597.88
2022-08-26T13:08:45.235Z,101599.97
2022-08-26T13:11:18.740Z,101598.81
2022-08-26T13:13:47.018Z,101582.81
2022-08-26T13:16:15.944Z,101591.28
2022-08-26T13:18:45.313Z,101597.44
2022-08-26T13:21:17.941Z,101595.41
2022-08-26T13:23:46.556Z,101602.50
2022-08-26T13:26:15.241Z,101546.28
2022-08-26T13:28:43.589Z,101597.56
2022-08-26T13:31:13.740Z,101593.94
2022-08-26T13:33:43.047Z,101599.47
2022-08-26T13:36:13.320Z,101596.19
2022-08-26T13:38:41.425Z,101596.88
2022-08-26T13:41:17.261Z,101587.03
2022-08-26T13:43:56.716Z,101588.13
2022-08-26T13:46:27.152Z,101588.19
2022-08-26T13:48:55.891Z,101578.00
2022-08-26T13:51:26.126Z,101572.25
2022-08-26T13:53:55.183Z,101560.34
2022-08-26T13:56:23.474Z,101548.13
2022-08-26T13:58:51.425Z,101562.00
2022-08-26T14:01:19.816Z,101564.66
2022-08-26T14:03:47.891Z,101563.09
2022-08-26T14:06:16.332Z,101558.91
2022-08-26T14:08:46.193Z,101548.25
2022-08-26T14:11:14.115Z,101530.91
2022-08-26T14:13:42.053Z,101559.03
2022-08-26T14:16:13.610Z,101527.97
2022-08-26T14:18:47.330Z,101548.06
2022-08-26T14:21:18.124Z,101555.38
2022-08-26T14:23:47.614Z,101546.56
2022-08-26T14:26:27.967Z,101536.84
2022-08-26T14:28:57.420Z,101544.81
2022-08-26T14:31:27.038Z,101544.59
2022-08-26T14:33:57.788Z,101508.28
2022-08-26T14:36:32.718Z,101542.91
2022-08-26T14:39:06.102Z,101544.44
2022-08-26T14:41:35.625Z,101549.09
2022-08-26T14:44:06.463Z,101546.88
2022-08-26T14:46:39.109Z,101516.19
2022-08-26T14:49:10.328Z,101548.09
2022-08-26T14:51:38.882Z,101544.38
2022-08-26T14:54:13.767Z,101545.56
2022-08-26T14:56:45.939Z,101531.66
2022-08-26T14:59:15.050Z,101538.34
2022-08-26T15:01:43.191Z,101539.03
2022-08-26T15:04:11.462Z,101542.66
2022-08-26T15:06:40.048Z,101532.19
2022-08-26T15:09:09.787Z,101523.50
2022-08-26T15:11:37.986Z,101531.03
2022-08-26T15:14:06.613Z,101524.81
2022-08-26T15:16:35.863Z,101522.38
2022-08-26T15:19:05.394Z,101509.06
2022-08-26T15:21:33.919Z,101512.94
2022-08-26T15:24:02.228Z,101520.78
2022-08-26T15:26:32.708Z,101523.28
2022-08-26T15:29:04.722Z,101506.03
2022-08-26T15:31:34.220Z,101508.53
2022-08-26T15:34:04.960Z,101505.44
2022-08-26T15:36:33.761Z,101499.97
2022-08-26T15:39:02.624Z,101496.06
2022-08-26T15:41:32.004Z,101508.22
2022-08-26T15:44:04.290Z,101494.06
2022-08-26T15:46:32.721Z,101484.78
2022-08-26T15:49:00.757Z,101482.69
2022-08-26T15:51:30.051Z,101474.78
2022-08-26T15:53:58.897Z,101484.75
2022-08-26T15:56:27.909Z,101482.84
2022-08-26T15:58:57.820Z,101445.94
2022-08-26T16:01:28.090Z,101475.84
2022-08-26T16:03:56.711Z,101463.97
2022-08-26T16:06:27.493Z,101472.94
2022-08-26T16:08:56.253Z,101466.97
2022-08-26T16:11:24.804Z,101476.38
2022-08-26T16:13:52.950Z,101479.16
2022-08-26T16:16:22.632Z,101473.31
2022-08-26T16:18:50.770Z,101468.09
2022-08-26T16:21:21.072Z,101456.09
2022-08-26T16:23:49.284Z,101458.91
2022-08-26T16:26:19.569Z,101462.72
2022-08-26T16:28:48.096Z,101437.47
2022-08-26T16:31:17.373Z,101355.13
2022-08-26T16:33:46.953Z,101465.06
2022-08-26T16:36:15.331Z,101463.94
2022-08-26T16:38:47.830Z,101443.38
2022-08-26T16:41:15.918Z,101471.88
2022-08-26T16:43:43.841Z,101445.06
2022-08-26T16:46:14.326Z,101462.53
2022-08-26T16:48:42.712Z,101464.00
2022-08-26T16:51:16.269Z,101463.72
2022-08-26T16:53:44.448Z,101467.03
2022-08-26T16:56:15.596Z,101456.75
2022-08-26T16:58:43.952Z,101452.56
2022-08-26T17:01:11.972Z,101440.53
2022-08-26T17:03:40.808Z,101473.63
2022-08-26T17:06:09.873Z,101474.81
2022-08-26T17:08:40.037Z,101485.81
2022-08-26T17:11:08.670Z,101464.69
2022-08-26T17:13:39.286Z,101473.81
2022-08-26T17:16:17.881Z,101477.56
2022-08-26T17:18:45.964Z,101478.56
2022-08-26T17:21:15.055Z,101471.56
2022-08-26T17:23:45.165Z,101464.53
2022-08-26T17:26:13.846Z,101430.97
2022-08-26T17:28:42.416Z,101448.81
2022-08-26T17:31:12.046Z,101476.34
2022-08-26T17:33:40.800Z,101482.59
2022-08-26T17:36:10.006Z,101479.97
2022-08-26T17:38:39.178Z,101476.44
2022-08-26T17:41:10.895Z,101475.63
2022-08-26T17:43:39.805Z,101473.00
2022-08-26T17:46:10.495Z,101465.94
2022-08-26T17:48:39.660Z,101444.72
2022-08-26T17:51:09.450Z,101482.00
2022-08-26T17:53:37.912Z,101466.94
2022-08-26T17:56:09.878Z,101482.94
2022-08-26T17:58:38.923Z,101480.28
2022-08-26T18:01:08.122Z,101478.56
2022-08-26T18:03:36.553Z,101399.66
2022-08-26T18:06:10.531Z,101412.97
2022-08-26T18:08:40.243Z,101424.50
2022-08-26T18:11:14.701Z,101475.97
2022-08-26T18:13:47.199Z,101458.25
2022-08-26T18:16:16.475Z,101437.81
2022-08-26T18:18:45.169Z,101479.56
2022-08-26T18:21:15.591Z,101474.25
2022-08-26T18:23:43.909Z,101473.38
2022-08-26T18:26:18.282Z,101437.88
2022-08-26T18:28:46.378Z,101482.22
2022-08-26T18:31:15.332Z,101444.09
2022-08-26T18:33:44.185Z,101476.00
2022-08-26T18:36:18.502Z,101470.69
2022-08-26T18:38:47.302Z,101472.47
2022-08-26T18:41:21.614Z,101478.69
2022-08-26T18:43:50.828Z,101442.31
2022-08-26T18:46:20.350Z,101473.38
2022-08-26T18:48:50.748Z,101468.94
2022-08-26T18:51:21.702Z,101475.16
2022-08-26T18:53:49.650Z,101468.94
2022-08-26T18:56:19.783Z,101463.63
2022-08-26T18:58:48.129Z,101472.50
2022-08-26T19:01:17.059Z,101472.50
2022-08-26T19:03:45.181Z,101356.28
2022-08-26T19:06:16.624Z,101457.41
2022-08-26T19:08:45.402Z,101477.81
2022-08-26T19:11:32.109Z,101472.50
2022-08-26T19:14:07.581Z,101477.81
2022-08-26T19:16:37.038Z,101469.84
2022-08-26T19:19:05.445Z,101473.38
2022-08-26T19:21:34.670Z,101419.25
2022-08-26T19:24:05.354Z,101465.41
2022-08-26T19:26:35.059Z,101465.41
2022-08-26T19:29:03.370Z,101460.06
2022-08-26T19:31:31.424Z,101470.72
2022-08-26T19:33:59.600Z,101464.50
2022-08-26T19:36:28.979Z,101468.06
2022-08-26T19:38:57.786Z,101436.97
2022-08-26T19:41:37.596Z,101462.72
2022-08-26T19:44:13.046Z,101333.19
2022-08-26T19:46:41.699Z,101460.91
2022-08-26T19:49:09.804Z,101442.28
2022-08-26T19:51:37.838Z,101455.59
2022-08-26T19:54:06.215Z,101437.84
2022-08-26T19:56:35.012Z,101345.56
2022-08-26T19:59:03.012Z,101460.91
2022-08-26T20:01:32.431Z,101441.38
2022-08-26T20:04:00.558Z,101455.56
2022-08-26T20:06:28.676Z,101450.25
2022-08-26T20:08:56.602Z,101453.78
2022-08-26T20:11:25.060Z,101349.13
2022-08-26T20:13:53.255Z,101447.59
2022-08-26T20:16:21.253Z,101447.59
2022-08-26T20:19:08.432Z,101443.16
2022-08-26T20:21:39.102Z,101448.47
2022-08-26T20:24:10.998Z,101449.34
2022-08-26T20:26:40.618Z,101445.78
2022-08-26T20:29:09.609Z,101444.91
2022-08-26T20:31:38.208Z,101445.78
2022-08-26T20:34:08.411Z,101452.88
2022-08-26T20:36:36.495Z,101444.91
2022-08-26T20:39:06.382Z,101442.25
2022-08-26T20:41:34.442Z,101439.59
2022-08-26T20:44:03.012Z,101423.63
2022-08-26T20:46:31.667Z,101435.19
2022-08-26T20:48:59.657Z,101436.94
2022-08-26T20:51:30.137Z,101434.28
2022-08-26T20:53:58.297Z,101441.38
2022-08-26T20:56:26.494Z,101439.59
2022-08-26T20:58:58.405Z,101422.75
2022-08-26T21:01:30.766Z,101439.59
2022-08-26T21:03:58.821Z,101434.28
2022-08-26T21:06:26.770Z,101436.06
2022-08-26T21:08:57.128Z,101430.75
2022-08-26T21:11:26.316Z,101428.09
2022-08-26T21:14:15.936Z,101421.00
2022-08-26T21:16:43.640Z,101418.34
2022-08-26T21:19:13.839Z,101416.56
2022-08-26T21:21:42.209Z,101409.47
2022-08-26T21:24:12.401Z,101412.13
2022-08-26T21:26:40.576Z,101413.88
2022-08-26T21:29:09.941Z,101411.22
2022-08-26T21:31:45.485Z,101406.78
2022-08-26T21:34:17.487Z,101415.66
2022-08-26T21:36:45.909Z,101373.06
2022-08-26T21:39:15.714Z,101415.63
2022-08-26T21:41:45.297Z,101384.59
2022-08-26T21:44:15.576Z,101406.78
2022-08-26T21:46:45.148Z,101405.00
2022-08-26T21:49:15.660Z,101408.56
2022-08-26T21:51:46.097Z,101362.41
2022-08-26T21:54:16.128Z,101399.66
2022-08-26T21:56:47.312Z,101420.94
2022-08-26T21:59:17.501Z,101419.19
2022-08-26T22:01:45.455Z,101415.63
2022-08-26T22:04:13.978Z,101410.31
2022-08-26T22:06:44.167Z,101414.75
2022-08-26T22:09:13.410Z,101409.44
2022-08-26T22:11:43.118Z,101403.25
2022-08-26T22:14:11.978Z,101403.25
2022-08-26T22:16:40.333Z,101402.38
2022-08-26T22:19:10.333Z,101398.84
2022-08-26T22:21:42.293Z,101391.75
2022-08-26T22:24:12.276Z,101395.31
2022-08-26T22:26:40.249Z,101394.41
2022-08-26T22:29:09.744Z,101385.59
2022-08-26T22:31:38.772Z,101387.34
2022-08-26T22:34:09.508Z,101384.69
2022-08-26T22:36:43.584Z,101385.59
2022-08-26T22:39:13.170Z,101381.16
2022-08-26T22:41:42.161Z,101344.75
2022-08-26T22:44:12.749Z,101381.16
2022-08-26T22:46:41.990Z,101387.34
2022-08-26T22:49:10.938Z,101363.41
2022-08-26T22:51:38.820Z,101386.47
2022-08-26T22:54:08.026Z,101374.94
2022-08-26T22:56:36.487Z,101374.03
2022-08-26T22:59:05.020Z,101374.03
2022-08-26T23:01:36.750Z,101381.13
2022-08-26T23:04:06.262Z,101380.25
2022-08-26T23:06:36.632Z,101372.25
2022-08-26T23:09:05.259Z,101368.72
2022-08-26T23:11:33.440Z,101338.56
2022-08-26T23:14:02.863Z,101358.94
2022-08-26T23:16:39.311Z,101346.53
2022-08-26T23:19:08.619Z,101334.13
2022-08-26T23:21:37.220Z,101319.94
2022-08-26T23:24:06.261Z,101228.66
2022-08-26T23:26:34.798Z,101349.19
2022-08-26T23:29:03.315Z,101342.09
2022-08-26T23:31:31.660Z,101340.31
2022-08-26T23:34:14.964Z,101309.31
2022-08-26T23:36:43.409Z,101340.34
2022-08-26T23:39:14.170Z,101334.13
2022-08-26T23:41:42.366Z,101325.25
2022-08-26T23:44:10.892Z,101321.72
2022-08-26T23:46:38.825Z,101272.97
2022-08-26T23:49:08.209Z,101319.06
2022-08-26T23:51:53.896Z,101311.97
2022-08-26T23:54:21.770Z,101309.31
2022-08-26T23:56:50.472Z,101303.09
2022-08-26T23:59:18.550Z,101269.41
